Gaschem Phoenix — ELUO6 — position and weather

sailwx.info

Track history (hours):
 
Tides and Currents Weather Stations Pressure Air Temp Water Temp Dewpoint Dewpoint Depression Visibility Wind Speed Wind Dir Waves Ship Positions

Gaschem Phoenix

Last reported at 2016-May-23 10:32 UTC. Time now 2016-May-31 07:48 UTC.
Position N 31°06' E 121°59'.

Length 100 m; draft 4.4 m.

Type: Ship. MMSI: 636090235.

Date/timePositionNaut miles runAvg speedWind from/ knotsBaromVisibWave heightAir tempDewpointWater temp
2016-May-23 10:32N 31°06' E 121°59'1514.6
2016-May-23 09:32N 31°15' E 121°46'1312.8
2016-May-23 08:33N 31°23' E 121°35'10 9.7
2016-May-23 07:33N 31°29' E 121°26'1111.0
2016-May-23 06:33N 31°36' E 121°17'1111.1
2016-May-23 05:33N 31°44' E 121°07'1310.5
2016-May-23 04:17N 31°51' E 120°54'1013.2
2016-May-23 03:31N 32°00' E 120°49'1312.7
2016-May-23 02:32N 32°01' E 120°34'1313.0
2016-May-23 01:31N 31°58' E 120°19'1312.5
2016-May-23 00:29N 31°57' E 120°04'4 0.2
2016-May-22 01:30N 31°59' E 119°60'8 8.2
2016-May-22 00:30N 31°56' E 120°09'8 8.3
2016-May-21 23:33N 31°58' E 120°18'10 9.6
2016-May-21 22:33N 32°04' E 120°27'9 8.9
2016-May-21 21:32N 32°00' E 120°37'9 7.9
2016-May-21 20:19N 32°01' E 120°48'8 9.9
2016-May-21 19:33N 31°54' E 120°53'1 0.1
2016-May-21 12:29N 31°54' E 120°54'6 6.7
2016-May-21 11:33N 31°48' E 120°56'9 8.7
2016-May-21 10:33N 31°45' E 121°06'8 8.5
2016-May-21 09:33N 31°39' E 121°13'9 8.8
2016-May-21 08:33N 31°33' E 121°20'1010.1
2016-May-21 07:33N 31°26' E 121°29'7 7.5
2016-May-21 06:33N 31°23' E 121°37'8 8.2
2016-May-21 05:33N 31°17' E 121°44'1211.9
2016-May-21 04:33N 31°09' E 121°54'  
2016-May-14 12:32N 31°17' E 121°44'1110.8
2016-May-14 11:33N 31°23' E 121°34'1010.1
2016-May-14 10:33N 31°30' E 121°25'1212.2
2016-May-14 09:33N 31°38' E 121°15'1313.3
2016-May-14 08:33N 31°46' E 121°02'  
Track history (hours):
 
Tides and Currents Weather Stations Pressure Air Temp Water Temp Dewpoint Dewpoint Depression Visibility Wind Speed Wind Dir Waves Ship Positions

Gaschem Phoenix

Last reported at 2016-May-23 10:32 UTC. Time now 2016-May-31 07:48 UTC.
Position N 31°06' E 121°59'.

Length 100 m; draft 4.4 m.

Type: Ship. MMSI: 636090235.

Date/timePositionNaut miles runAvg speedWind from/ knotsBaromVisibWave heightAir tempDewpointWater temp
2016-May-23 10:32N 31°06' E 121°59'1514.6
2016-May-23 09:32N 31°15' E 121°46'1312.8
2016-May-23 08:33N 31°23' E 121°35'10 9.7
2016-May-23 07:33N 31°29' E 121°26'1111.0
2016-May-23 06:33N 31°36' E 121°17'1111.1
2016-May-23 05:33N 31°44' E 121°07'1310.5
2016-May-23 04:17N 31°51' E 120°54'1013.2
2016-May-23 03:31N 32°00' E 120°49'1312.7
2016-May-23 02:32N 32°01' E 120°34'1313.0
2016-May-23 01:31N 31°58' E 120°19'1312.5
2016-May-23 00:29N 31°57' E 120°04'4 0.2
2016-May-22 01:30N 31°59' E 119°60'8 8.2
2016-May-22 00:30N 31°56' E 120°09'8 8.3
2016-May-21 23:33N 31°58' E 120°18'10 9.6
2016-May-21 22:33N 32°04' E 120°27'9 8.9
2016-May-21 21:32N 32°00' E 120°37'9 7.9
2016-May-21 20:19N 32°01' E 120°48'8 9.9
2016-May-21 19:33N 31°54' E 120°53'1 0.1
2016-May-21 12:29N 31°54' E 120°54'6 6.7
2016-May-21 11:33N 31°48' E 120°56'9 8.7
2016-May-21 10:33N 31°45' E 121°06'8 8.5
2016-May-21 09:33N 31°39' E 121°13'9 8.8
2016-May-21 08:33N 31°33' E 121°20'1010.1
2016-May-21 07:33N 31°26' E 121°29'7 7.5
2016-May-21 06:33N 31°23' E 121°37'8 8.2
2016-May-21 05:33N 31°17' E 121°44'1211.9
2016-May-21 04:33N 31°09' E 121°54'  
2016-May-14 12:32N 31°17' E 121°44'1110.8
2016-May-14 11:33N 31°23' E 121°34'1010.1
2016-May-14 10:33N 31°30' E 121°25'1212.2
2016-May-14 09:33N 31°38' E 121°15'1313.3
2016-May-14 08:33N 31°46' E 121°02'  

Dump ship's entire track history